Time;durP1;ratioP1;P1;durP2;ratioP2;P2;SDS_P1;SDS_P2;PMS_P1;PMS_P2;Temp;Humidity;BMP_temperature;BMP_pressure;BME280_temperature;BME280_humidity;BME280_pressure;Samples;Min_cycle;Max_cycle;Signal;HPM_P1;HPM_P2
2022/09/20 00:02:00;;;;;;;1.58;0.70;;;18.30;73.80;;;;;;10832625;32;20046;-73
2022/09/20 00:08:06;;;;;;;0.90;0.90;;;18.30;74.00;;;;;;10831495;32;20412;-73
2022/09/20 00:14:09;;;;;;;0.98;0.98;;;18.30;73.90;;;;;;10829216;32;20462;-73
2022/09/20 00:20:11;;;;;;;0.60;0.60;;;18.30;73.90;;;;;;10829595;32;20082;-73
2022/09/20 00:26:13;;;;;;;1.15;1.05;;;18.20;73.90;;;;;;10826716;32;20032;-73
2022/09/20 00:32:15;;;;;;;1.45;1.05;;;18.10;74.50;;;;;;10828047;32;20424;-73
2022/09/20 00:38:18;;;;;;;0.70;0.70;;;18.10;74.90;;;;;;10830453;32;20063;-72
2022/09/20 00:44:44;;;;;;;1.50;1.08;;;18.00;75.00;;;;;;10831147;32;20024;-74
2022/09/20 00:50:56;;;;;;;0.88;0.80;;;18.00;75.50;;;;;;10830088;32;20023;-73
2022/09/20 00:56:59;;;;;;;0.70;0.70;;;17.90;75.90;;;;;;10830784;32;20396;-72
2022/09/20 01:03:06;;;;;;;0.93;0.93;;;17.90;76.00;;;;;;10826878;32;20352;-73
2022/09/20 01:09:08;;;;;;;0.73;0.73;;;17.90;76.10;;;;;;10829287;32;20094;-73
2022/09/20 01:15:11;;;;;;;1.10;1.00;;;17.90;76.10;;;;;;10830241;32;20389;-72
2022/09/20 01:21:14;;;;;;;0.75;0.75;;;17.80;76.10;;;;;;10830134;32;20020;-72
2022/09/20 01:27:25;;;;;;;1.00;0.90;;;17.80;76.40;;;;;;10829812;32;20020;-73
2022/09/20 01:33:46;;;;;;;1.37;1.05;;;17.80;76.40;;;;;;10829867;32;20067;-73
2022/09/20 01:40:09;;;;;;;1.12;1.02;;;17.80;76.40;;;;;;10829851;33;20059;-73
2022/09/20 01:46:33;;;;;;;2.20;1.08;;;17.70;76.50;;;;;;10827918;33;20398;-72
2022/09/20 01:52:53;;;;;;;0.93;0.90;;;17.70;76.50;;;;;;10829612;32;20025;-73
2022/09/20 01:59:53;;;;;;;1.60;1.37;;;17.80;76.70;;;;;;10826947;32;20036;-73
2022/09/20 02:06:32;;;;;;;1.75;0.98;;;17.70;76.60;;;;;;10784882;33;20020;-73
2022/09/20 02:12:46;;;;;;;1.77;1.08;;;17.70;76.60;;;;;;10786129;33;20032;-73
2022/09/20 02:18:57;;;;;;;1.30;0.95;;;17.60;76.50;;;;;;10788788;33;20101;-73
2022/09/20 02:25:35;;;;;;;1.65;0.93;;;17.60;76.60;;;;;;10788773;33;20110;-73
2022/09/20 02:32:12;;;;;;;1.10;1.00;;;17.60;76.80;;;;;;10788734;33;20020;-72
2022/09/20 02:45:58;;;;;;;0.82;0.80;;;17.50;76.80;;;;;;10791326;33;20024;-73
2022/09/20 02:52:22;;;;;;;0.85;0.80;;;17.50;76.70;;;;;;10722219;33;20063;-73
2022/09/20 02:58:39;;;;;;;1.20;1.05;;;17.50;76.40;;;;;;10721290;33;20041;-73
2022/09/20 03:05:09;;;;;;;0.77;0.77;;;17.50;76.30;;;;;;10721235;33;20040;-73
2022/09/20 03:11:30;;;;;;;0.88;0.88;;;17.40;76.40;;;;;;10716866;33;20071;-72
2022/09/20 03:17:51;;;;;;;0.90;0.90;;;17.30;76.50;;;;;;10736201;33;20166;-72
2022/09/20 03:23:55;;;;;;;1.30;0.77;;;17.20;76.60;;;;;;10793072;33;20020;-73
2022/09/20 03:30:08;;;;;;;0.75;0.75;;;17.20;76.60;;;;;;10832711;32;20028;-72
2022/09/20 03:36:40;;;;;;;0.90;0.90;;;17.20;76.40;;;;;;10832729;32;20404;-72
2022/09/20 03:42:51;;;;;;;0.90;0.85;;;17.00;76.50;;;;;;10793523;33;20051;-72
2022/09/20 03:49:18;;;;;;;1.05;0.73;;;17.00;76.60;;;;;;10791992;33;20047;-72
2022/09/20 03:55:41;;;;;;;0.70;0.70;;;17.10;76.30;;;;;;10791545;33;20317;-72
2022/09/20 04:01:52;;;;;;;0.88;0.82;;;17.10;76.10;;;;;;10788526;33;20083;-72
2022/09/20 04:08:17;;;;;;;0.85;0.85;;;17.10;76.60;;;;;;10791397;33;20029;-73
2022/09/20 04:14:39;;;;;;;0.73;0.73;;;17.00;76.50;;;;;;10788094;33;20054;-73
2022/09/20 04:20:59;;;;;;;0.93;0.88;;;17.00;77.00;;;;;;10830590;32;20050;-72
2022/09/20 04:27:16;;;;;;;0.77;0.77;;;16.90;76.90;;;;;;10831775;32;20066;-72
2022/09/20 04:33:23;;;;;;;1.48;1.23;;;17.00;76.90;;;;;;10831603;32;20024;-72
2022/09/20 04:39:46;;;;;;;0.70;0.70;;;16.90;76.90;;;;;;10831277;32;20027;-72
2022/09/20 04:46:15;;;;;;;0.70;0.70;;;16.80;77.00;;;;;;10831222;32;20032;-72
2022/09/20 04:53:04;;;;;;;0.90;0.90;;;16.80;77.40;;;;;;10830933;32;20016;-72
2022/09/20 04:59:12;;;;;;;0.90;0.90;;;16.80;77.10;;;;;;10786311;33;20036;-72
2022/09/20 05:05:41;;;;;;;1.15;1.05;;;16.80;77.40;;;;;;10789675;33;20035;-73
2022/09/20 05:12:01;;;;;;;1.00;0.93;;;16.80;77.40;;;;;;10789162;33;20055;-72
2022/09/20 05:18:33;;;;;;;0.77;0.70;;;16.70;77.20;;;;;;10752912;33;20067;-72
2022/09/20 05:24:59;;;;;;;1.52;1.08;;;16.80;77.20;;;;;;10752734;33;20036;-75
2022/09/20 05:31:27;;;;;;;1.23;1.10;;;16.80;77.20;;;;;;10755892;33;20050;-72
2022/09/20 05:38:07;;;;;;;1.03;0.87;;;16.80;77.10;;;;;;10785109;33;20376;-72
2022/09/20 05:44:41;;;;;;;1.00;0.90;;;16.80;77.20;;;;;;10784537;33;20371;-73
2022/09/20 05:50:59;;;;;;;1.33;0.93;;;16.80;77.40;;;;;;10712407;33;20032;-72
2022/09/20 05:57:07;;;;;;;4.35;1.00;;;16.80;77.20;;;;;;10715815;33;20386;-72
2022/09/20 06:03:41;;;;;;;0.95;0.95;;;16.80;77.00;;;;;;10715216;33;20060;-73
2022/09/20 06:09:52;;;;;;;0.85;0.80;;;16.80;77.00;;;;;;10749949;33;20428;-73
2022/09/20 06:16:00;;;;;;;1.80;1.33;;;16.90;77.10;;;;;;10753181;27;20045;-73
2022/09/20 06:22:27;;;;;;;0.80;0.80;;;16.90;77.00;;;;;;10753660;33;20036;-72
2022/09/20 06:28:34;;;;;;;0.93;0.93;;;16.90;77.00;;;;;;10799624;32;20071;-73
2022/09/20 06:34:36;;;;;;;3.70;0.90;;;16.90;77.10;;;;;;10797803;33;20029;-73
2022/09/20 06:47:11;;;;;;;0.85;0.80;;;17.10;77.00;;;;;;10797528;33;20044;-73
2022/09/20 06:53:20;;;;;;;3.03;1.07;;;17.20;76.90;;;;;;10797966;32;20029;-73
2022/09/20 06:59:23;;;;;;;1.20;0.82;;;17.30;76.70;;;;;;10797204;32;20115;-73
2022/09/20 07:05:25;;;;;;;0.98;0.98;;;17.30;76.40;;;;;;10797794;33;20047;-73
2022/09/20 07:11:28;;;;;;;1.37;1.25;;;17.40;76.10;;;;;;10801347;32;20055;-72
2022/09/20 07:17:51;;;;;;;0.60;0.60;;;17.50;75.70;;;;;;10834055;32;20385;-72
2022/09/20 07:23:54;;;;;;;12.93;1.75;;;17.60;75.40;;;;;;10833590;32;20050;-73
2022/09/20 07:29:56;;;;;;;1.73;1.30;;;17.70;74.00;;;;;;10833719;32;20024;-72
2022/09/20 07:35:58;;;;;;;0.88;0.85;;;17.70;73.40;;;;;;10833141;32;20047;-74
2022/09/20 07:42:05;;;;;;;1.55;1.12;;;17.80;73.30;;;;;;10829094;32;20058;-72
2022/09/20 07:48:08;;;;;;;1.48;1.12;;;17.80;73.30;;;;;;10832697;32;20058;-73
2022/09/20 07:54:10;;;;;;;1.42;0.90;;;18.00;72.90;;;;;;10832596;32;20053;-73
2022/09/20 08:00:13;;;;;;;1.10;1.00;;;18.10;72.90;;;;;;10828211;32;20028;-73
2022/09/20 08:06:17;;;;;;;1.02;0.90;;;18.20;72.60;;;;;;10827811;33;20047;-74
2022/09/20 08:12:19;;;;;;;1.20;0.60;;;18.30;72.50;;;;;;10827393;32;20071;-73
2022/09/20 08:18:26;;;;;;;1.00;0.90;;;18.30;72.40;;;;;;10831463;32;20047;-74
2022/09/20 08:24:38;;;;;;;1.02;0.98;;;18.40;72.00;;;;;;10436749;32;12031645;-73
2022/09/20 08:30:40;;;;;;;1.65;1.25;;;18.50;71.80;;;;;;10789115;33;20052;-73
2022/09/20 08:36:45;;;;;;;1.05;0.95;;;18.50;71.90;;;;;;10774157;33;20044;-74
2022/09/20 08:42:48;;;;;;;1.60;1.08;;;18.70;71.90;;;;;;10787065;33;20345;-74
2022/09/20 08:48:51;;;;;;;1.00;0.90;;;18.80;71.70;;;;;;10799167;32;20464;-74
2022/09/20 08:54:56;;;;;;;2.17;1.23;;;18.80;71.40;;;;;;10831484;32;20016;-73
2022/09/20 09:00:58;;;;;;;1.58;1.02;;;18.90;70.50;;;;;;10830503;32;20024;-75
2022/09/20 09:07:01;;;;;;;3.67;1.27;;;19.00;70.50;;;;;;10826170;32;20027;-75
2022/09/20 09:13:05;;;;;;;1.25;0.93;;;19.10;69.60;;;;;;10825092;33;20103;-74
2022/09/20 09:19:32;;;;;;;1.48;1.00;;;19.20;69.70;;;;;;10829534;32;20028;-75
2022/09/20 09:25:38;;;;;;;0.73;0.73;;;19.30;69.90;;;;;;10823910;33;20050;-75
2022/09/20 09:31:42;;;;;;;1.73;1.00;;;19.40;69.50;;;;;;10828831;32;20032;-73
2022/09/20 09:37:54;;;;;;;0.95;0.65;;;19.60;69.50;;;;;;10827745;32;20035;-73
2022/09/20 09:44:01;;;;;;;1.48;1.20;;;19.70;69.00;;;;;;10824488;32;20032;-72
2022/09/20 09:50:04;;;;;;;1.17;1.00;;;19.80;68.40;;;;;;10835595;32;20016;-73
2022/09/20 09:56:26;;;;;;;1.67;0.85;;;19.90;67.60;;;;;;10836058;32;20024;-73
2022/09/20 10:03:00;;;;;;;0.65;0.57;;;20.00;67.20;;;;;;10833467;32;20419;-72
2022/09/20 10:09:39;;;;;;;0.90;0.80;;;20.20;66.80;;;;;;10831574;33;20340;-72
2022/09/20 10:15:49;;;;;;;1.60;0.95;;;20.30;66.30;;;;;;10756529;33;20032;-74
2022/09/20 10:22:00;;;;;;;0.88;0.88;;;20.40;66.10;;;;;;10756274;33;20329;-73
2022/09/20 10:28:12;;;;;;;0.80;0.80;;;20.50;65.10;;;;;;10754554;33;20111;-74
2022/09/20 10:34:41;;;;;;;0.90;0.90;;;20.60;64.60;;;;;;10758568;33;20440;-73
2022/09/20 10:47:31;;;;;;;0.88;0.68;;;20.80;64.00;;;;;;10758179;33;20060;-73
2022/09/20 10:54:05;;;;;;;0.77;0.70;;;21.10;63.30;;;;;;10830588;32;20051;-75
2022/09/20 11:00:32;;;;;;;1.75;1.00;;;21.10;62.40;;;;;;10833610;32;20032;-75
2022/09/20 11:06:59;;;;;;;1.02;0.68;;;20.80;63.30;;;;;;10830424;33;20040;-75
2022/09/20 11:13:09;;;;;;;1.35;0.60;;;20.90;62.50;;;;;;10827775;32;20058;-74
2022/09/20 11:19:32;;;;;;;0.43;0.43;;;21.40;61.80;;;;;;10823006;32;20039;-73
2022/09/20 11:25:40;;;;;;;0.75;0.68;;;21.90;61.30;;;;;;10827192;32;20033;-74
2022/09/20 11:31:47;;;;;;;0.40;0.40;;;22.40;59.50;;;;;;10829839;32;20036;-74
2022/09/20 11:38:26;;;;;;;1.65;0.98;;;22.40;59.30;;;;;;10828433;33;20024;-74
2022/09/20 11:44:28;;;;;;;1.20;0.50;;;22.30;59.80;;;;;;10829962;32;20074;-73
2022/09/20 11:50:43;;;;;;;0.60;0.45;;;22.50;59.70;;;;;;10833177;32;20032;-73
2022/09/20 11:56:55;;;;;;;0.60;0.60;;;22.80;58.50;;;;;;10833854;32;20345;-74
2022/09/20 12:03:02;;;;;;;1.20;0.70;;;22.90;58.40;;;;;;10828614;32;20036;-73
2022/09/20 12:09:26;;;;;;;0.82;0.60;;;23.10;58.80;;;;;;10832461;32;20016;-73
2022/09/20 12:15:38;;;;;;;1.83;0.70;;;23.10;58.30;;;;;;10831345;32;20046;-73
2022/09/20 12:21:58;;;;;;;1.90;0.45;;;23.00;57.80;;;;;;10832087;32;20082;-73
2022/09/20 12:28:01;;;;;;;3.83;0.75;;;23.00;57.20;;;;;;10826450;33;20070;-73
2022/09/20 12:34:09;;;;;;;7.97;0.75;;;22.90;56.90;;;;;;10831323;32;20587;-73
2022/09/20 12:40:15;;;;;;;0.50;0.43;;;22.80;57.20;;;;;;10831510;32;20360;-73
2022/09/20 12:46:42;;;;;;;3.47;1.05;;;22.70;57.00;;;;;;10827088;32;20036;-73
2022/09/20 12:52:55;;;;;;;1.05;0.80;;;22.50;57.00;;;;;;10827321;32;20032;-73
2022/09/20 12:59:19;;;;;;;1.15;0.80;;;22.50;56.80;;;;;;10826206;32;20438;-73
2022/09/20 13:05:37;;;;;;;1.67;0.80;;;22.50;56.80;;;;;;10828132;32;20054;-73
2022/09/20 13:11:53;;;;;;;1.15;0.52;;;22.60;56.80;;;;;;10830151;32;20054;-73
2022/09/20 13:18:00;;;;;;;1.23;0.80;;;22.70;56.90;;;;;;10830143;32;20048;-73
2022/09/20 13:24:03;;;;;;;0.90;0.68;;;22.80;57.10;;;;;;10829935;32;20054;-73
2022/09/20 13:30:16;;;;;;;1.17;0.77;;;22.80;56.80;;;;;;10828526;32;20015;-73
2022/09/20 13:36:26;;;;;;;2.17;0.85;;;22.80;57.00;;;;;;10829770;32;20055;-72
2022/09/20 13:42:29;;;;;;;0.52;0.40;;;22.80;57.10;;;;;;10828131;33;20409;-73
2022/09/20 13:48:31;;;;;;;1.10;0.40;;;22.90;56.60;;;;;;10828942;32;20043;-73
2022/09/20 13:54:34;;;;;;;1.30;0.45;;;22.80;55.90;;;;;;10825444;32;20318;-74
2022/09/20 14:00:44;;;;;;;1.17;0.40;;;22.60;56.10;;;;;;10828872;33;20047;-73
2022/09/20 14:06:48;;;;;;;0.98;0.50;;;22.60;56.50;;;;;;10828135;33;20070;-73
2022/09/20 14:13:01;;;;;;;1.30;1.02;;;22.50;56.80;;;;;;10833226;27;20058;-73
2022/09/20 14:19:09;;;;;;;0.98;0.57;;;22.30;57.30;;;;;;10825001;32;20028;-73
2022/09/20 14:26:24;;;;;;;0.95;0.93;;;22.40;57.20;;;;;;10789430;33;20443;-72
2022/09/20 14:32:36;;;;;;;3.40;0.85;;;22.60;56.80;;;;;;10788561;33;20025;-73
2022/09/20 14:38:38;;;;;;;1.23;0.50;;;22.70;56.50;;;;;;10793864;33;20486;-72
2022/09/20 14:44:41;;;;;;;1.30;0.80;;;22.80;56.30;;;;;;10794429;33;20068;-73
2022/09/20 14:50:45;;;;;;;1.23;0.80;;;23.00;56.20;;;;;;10795510;33;20056;-73
2022/09/20 14:56:49;;;;;;;0.45;0.45;;;23.00;56.10;;;;;;10793485;33;20020;-73
2022/09/20 15:02:52;;;;;;;0.60;0.52;;;23.00;56.80;;;;;;10829127;32;20028;-73
2022/09/20 15:08:54;;;;;;;0.73;0.73;;;23.00;56.70;;;;;;10833751;32;20020;-73
2022/09/20 15:14:56;;;;;;;3.33;0.60;;;23.30;56.50;;;;;;10830396;32;20028;-73
2022/09/20 15:20:59;;;;;;;1.50;0.90;;;23.40;55.80;;;;;;10834220;32;20036;-73
2022/09/20 15:27:34;;;;;;;0.62;0.40;;;23.70;55.50;;;;;;10834115;32;20357;-73
2022/09/20 15:33:36;;;;;;;2.45;0.43;;;24.20;54.70;;;;;;10789893;33;20032;-73
2022/09/20 15:39:38;;;;;;;0.40;0.40;;;25.20;53.00;;;;;;10788641;33;20024;-73
2022/09/20 15:45:48;;;;;;;0.32;0.32;;;25.90;51.40;;;;;;10793282;33;20033;-74
2022/09/20 15:51:51;;;;;;;2.58;0.30;;;25.80;51.70;;;;;;10793459;33;20059;-73
2022/09/20 15:58:16;;;;;;;2.65;0.68;;;25.10;53.20;;;;;;10792729;33;20058;-73
2022/09/20 16:04:21;;;;;;;7.57;1.10;;;24.40;54.50;;;;;;10789082;33;20059;-73
2022/09/20 16:11:09;;;;;;;1.20;0.57;;;24.10;54.90;;;;;;10819937;33;20040;-73
2022/09/20 16:23:55;;;;;;;0.45;0.40;;;24.50;56.10;;;;;;10831814;32;20043;-73
2022/09/20 16:29:58;;;;;;;0.57;0.43;;;23.90;57.60;;;;;;10831843;32;20025;-73
2022/09/20 16:36:00;;;;;;;0.60;0.40;;;23.30;58.50;;;;;;10814544;33;20039;-73
2022/09/20 16:42:15;;;;;;;1.95;0.77;;;22.80;59.50;;;;;;10827386;32;20392;-73
2022/09/20 16:48:28;;;;;;;0.93;0.50;;;22.50;59.50;;;;;;10813773;33;20019;-73
2022/09/20 16:54:46;;;;;;;0.47;0.47;;;22.30;59.80;;;;;;10817248;32;20020;-73
2022/09/20 17:00:48;;;;;;;1.70;0.90;;;22.20;60.10;;;;;;10829479;32;20348;-73
2022/09/20 17:06:51;;;;;;;0.98;0.55;;;22.00;60.10;;;;;;10830548;32;20020;-73
2022/09/20 17:12:56;;;;;;;1.12;0.50;;;21.90;60.20;;;;;;10828956;32;20384;-73
2022/09/20 17:19:00;;;;;;;0.85;0.50;;;21.80;60.50;;;;;;10812890;33;20054;-73
2022/09/20 17:25:02;;;;;;;0.62;0.60;;;21.70;60.80;;;;;;10830087;32;20340;-73
2022/09/20 17:31:07;;;;;;;0.98;0.50;;;21.60;61.40;;;;;;10825974;33;20023;-73
2022/09/20 17:37:09;;;;;;;2.85;0.73;;;21.40;62.10;;;;;;10827622;32;20538;-73
2022/09/20 17:43:11;;;;;;;1.90;0.65;;;21.30;62.40;;;;;;10829757;33;20051;-73
2022/09/20 17:49:26;;;;;;;2.17;0.70;;;21.30;62.40;;;;;;10829360;33;20028;-73
2022/09/20 17:55:29;;;;;;;2.60;1.00;;;21.20;62.50;;;;;;10827771;33;20434;-73
2022/09/20 18:01:33;;;;;;;2.80;0.57;;;21.00;62.50;;;;;;10825119;33;20440;-73
2022/09/20 18:07:54;;;;;;;1.55;0.82;;;20.90;62.70;;;;;;10812885;32;20070;-73
2022/09/20 18:13:58;;;;;;;0.75;0.70;;;20.90;62.80;;;;;;10823267;32;20016;-73
2022/09/20 18:20:04;;;;;;;0.95;0.80;;;20.80;62.90;;;;;;10835782;32;20053;-73
2022/09/20 18:26:22;;;;;;;0.90;0.75;;;20.80;63.20;;;;;;10835975;32;20054;-73
2022/09/20 18:32:25;;;;;;;1.12;0.85;;;20.70;63.40;;;;;;10822689;32;20024;-73
2022/09/20 18:38:28;;;;;;;1.02;0.60;;;20.70;63.80;;;;;;10831278;33;20058;-73
2022/09/20 18:44:32;;;;;;;2.40;1.00;;;20.60;63.90;;;;;;10835500;32;20051;-73
2022/09/20 18:50:34;;;;;;;2.08;1.10;;;20.60;64.80;;;;;;10819062;33;20019;-73
2022/09/20 18:56:39;;;;;;;0.60;0.60;;;20.50;65.50;;;;;;10821558;32;20031;-73
2022/09/20 19:03:09;;;;;;;0.77;0.65;;;20.30;66.20;;;;;;10832923;32;20123;-73
2022/09/20 19:09:38;;;;;;;1.05;0.82;;;20.20;67.10;;;;;;10831224;32;20025;-73
2022/09/20 19:15:59;;;;;;;0.50;0.50;;;20.20;67.40;;;;;;10830078;33;20034;-73
2022/09/20 19:22:31;;;;;;;2.30;0.90;;;20.10;67.40;;;;;;10833289;32;20064;-73
2022/09/20 19:28:34;;;;;;;1.00;0.90;;;20.10;67.80;;;;;;10833571;32;20046;-73
2022/09/20 19:34:50;;;;;;;3.45;1.50;;;20.00;68.50;;;;;;10833552;32;20300;-73
2022/09/20 19:41:26;;;;;;;2.87;1.75;;;20.00;68.60;;;;;;10833471;32;20051;-73
2022/09/20 19:47:53;;;;;;;2.47;1.10;;;19.90;68.70;;;;;;10829060;33;20055;-73
2022/09/20 19:53:55;;;;;;;0.95;0.90;;;19.90;68.50;;;;;;10833044;32;20053;-73
2022/09/20 19:59:58;;;;;;;1.25;0.93;;;19.90;68.50;;;;;;10819611;32;20542;-73
2022/09/20 20:06:11;;;;;;;1.17;1.00;;;19.90;68.60;;;;;;10828972;32;20024;-73
2022/09/20 20:12:29;;;;;;;2.60;1.40;;;19.80;68.50;;;;;;10828629;32;20028;-73
2022/09/20 20:18:58;;;;;;;2.65;1.60;;;19.70;69.50;;;;;;10831135;32;20055;-73
2022/09/20 20:25:00;;;;;;;2.92;1.50;;;19.50;70.70;;;;;;10831660;32;20392;-73
2022/09/20 20:31:03;;;;;;;3.17;1.50;;;19.50;70.70;;;;;;10832016;32;20043;-73
2022/09/20 20:37:06;;;;;;;4.78;2.25;;;19.50;71.00;;;;;;10829750;32;20051;-73
2022/09/20 20:43:09;;;;;;;3.35;2.08;;;19.50;71.20;;;;;;10814145;33;20027;-73
2022/09/20 20:49:11;;;;;;;2.75;1.87;;;19.50;71.40;;;;;;10831180;32;20067;-73
2022/09/20 20:55:14;;;;;;;3.97;2.33;;;19.50;71.50;;;;;;10817815;32;20028;-73
2022/09/20 21:01:30;;;;;;;2.08;1.48;;;19.50;71.30;;;;;;10830713;32;20036;-73
2022/09/20 21:07:32;;;;;;;2.33;1.20;;;19.50;71.00;;;;;;10830314;32;20027;-73
2022/09/20 21:13:34;;;;;;;3.12;1.62;;;19.40;71.00;;;;;;10830436;32;20028;-73
2022/09/20 21:19:37;;;;;;;3.40;2.35;;;19.30;71.00;;;;;;10812893;33;20032;-73
2022/09/20 21:25:39;;;;;;;3.83;1.83;;;19.40;71.30;;;;;;10816879;32;20028;-73
2022/09/20 21:31:44;;;;;;;4.43;2.08;;;19.30;71.50;;;;;;10825904;33;20055;-73
2022/09/20 21:37:47;;;;;;;3.00;1.62;;;19.30;71.30;;;;;;10829831;32;20059;-73
2022/09/20 21:43:54;;;;;;;1.90;1.62;;;19.30;71.50;;;;;;10828998;32;20027;-73
2022/09/20 21:49:57;;;;;;;2.62;1.90;;;19.30;71.60;;;;;;10812435;33;20085;-73
2022/09/20 21:56:00;;;;;;;1.30;1.15;;;19.30;71.50;;;;;;10825412;33;20032;-73
2022/09/20 22:02:03;;;;;;;1.87;1.35;;;19.30;71.70;;;;;;10829474;33;20099;-73
2022/09/20 22:08:05;;;;;;;2.85;1.50;;;19.30;71.60;;;;;;10829282;33;20418;-73
2022/09/20 22:14:08;;;;;;;1.60;1.40;;;19.30;71.80;;;;;;10850434;27;20412;-73
2022/09/20 22:20:10;;;;;;;2.15;1.37;;;19.30;72.10;;;;;;10866307;32;20441;-73
2022/09/20 22:26:14;;;;;;;2.33;1.33;;;19.30;72.00;;;;;;10862025;32;20047;-73
2022/09/20 22:32:16;;;;;;;0.75;0.73;;;19.30;72.00;;;;;;10863503;32;20027;-73
2022/09/20 22:38:18;;;;;;;2.70;1.12;;;19.30;72.00;;;;;;10849404;32;20054;-73
2022/09/20 22:44:20;;;;;;;2.15;1.17;;;19.30;72.30;;;;;;10852601;32;20403;-73
2022/09/20 22:50:22;;;;;;;1.58;1.12;;;19.20;72.40;;;;;;10865780;32;20359;-73
2022/09/20 22:56:29;;;;;;;2.72;1.60;;;19.20;72.30;;;;;;10869990;32;20051;-73
2022/09/20 23:02:31;;;;;;;4.43;1.50;;;19.20;72.20;;;;;;10867916;32;20023;-73
2022/09/20 23:08:33;;;;;;;2.05;1.35;;;19.20;72.20;;;;;;10871708;32;20023;-73
2022/09/20 23:14:35;;;;;;;1.23;1.10;;;19.20;72.30;;;;;;10871413;32;20038;-73
2022/09/20 23:20:37;;;;;;;1.90;1.10;;;19.10;72.50;;;;;;10867160;32;20035;-73
2022/09/20 23:26:40;;;;;;;0.98;0.90;;;19.00;72.60;;;;;;10871069;32;20035;-73
2022/09/20 23:32:42;;;;;;;4.78;1.37;;;19.10;72.40;;;;;;10869697;32;20055;-73
2022/09/20 23:38:45;;;;;;;0.70;0.70;;;19.10;72.40;;;;;;10870651;32;20046;-73
2022/09/20 23:44:47;;;;;;;2.40;1.40;;;19.00;72.50;;;;;;10870583;32;20011;-73
2022/09/20 23:50:48;;;;;;;2.35;1.20;;;18.90;72.80;;;;;;10866165;32;20020;-73
2022/09/20 23:56:51;;;;;;;1.02;0.98;;;18.70;73.10;;;;;;10856814;32;20042;-73
